AOJ12 LICR-EDDM
Flight info
| Callsign | AOJ12 |
|---|---|
| Flight time | N/A |
| Altitude | 18000 |
| Route | PAZZE Z854 BAGIX/N0451F400 DCT POLIT DCT TEA DCT BAKEP DCT SUMIR DCT SOTOV/N0423F240 T101 BETOS BETOS1B |
| Aircraft | CL60/M-SBDE1E2E3FGHIJ1J4J5J7M3RWXYZ/LB1V1D1 |
Departure
| Time | 2026-05-06 16:23 |
|---|---|
| Airport | Reggio Calabria Airport (LICR) |
Arrival
| Time | N/A |
|---|---|
| Airport | Munich Airport (EDDM) |
| Time | Latitude | Longitude | Altitude | Speed | Heading |
|---|---|---|---|---|---|
| 2026-05-06 15:51 | 38.07253 | 15.65379 | 123 ft | 0 kts | 112° |
| 2026-05-06 16:19 | 38.07251 | 15.65382 | 123 ft | 1 kts | 141° |
| 2026-05-06 16:19 | 38.07237 | 15.65367 | 123 ft | 4 kts | 247° |
| 2026-05-06 16:19 | 38.07239 | 15.65319 | 123 ft | 7 kts | 318° |
| 2026-05-06 16:20 | 38.07290 | 15.65282 | 123 ft | 9 kts | 333° |
| 2026-05-06 16:20 | 38.07338 | 15.65245 | 123 ft | 8 kts | 301° |
| 2026-05-06 16:20 | 38.07317 | 15.65170 | 123 ft | 10 kts | 242° |
| 2026-05-06 16:20 | 38.07274 | 15.65083 | 122 ft | 13 kts | 209° |
| 2026-05-06 16:21 | 38.07183 | 15.65116 | 123 ft | 15 kts | 154° |
| 2026-05-06 16:21 | 38.07078 | 15.65182 | 122 ft | 18 kts | 153° |
| 2026-05-06 16:21 | 38.06960 | 15.65260 | 123 ft | 20 kts | 154° |
| 2026-05-06 16:21 | 38.06825 | 15.65349 | 123 ft | 22 kts | 153° |
| 2026-05-06 16:22 | 38.06679 | 15.65444 | 123 ft | 23 kts | 153° |
| 2026-05-06 16:22 | 38.06559 | 15.65521 | 123 ft | 13 kts | 152° |
| 2026-05-06 16:22 | 38.06507 | 15.65595 | 123 ft | 8 kts | 117° |
| 2026-05-06 16:22 | 38.06480 | 15.65584 | 123 ft | 9 kts | 294° |
| 2026-05-06 16:23 | 38.06509 | 15.65554 | 123 ft | 0 kts | 333° |
| 2026-05-06 16:23 | 38.06631 | 15.65475 | 123 ft | 66 kts | 333° |
| 2026-05-06 16:23 | 38.07364 | 15.65003 | 129 ft | 162 kts | 331° |
| 2026-05-06 16:23 | 38.08447 | 15.64336 | 907 ft | 179 kts | 332° |
| 2026-05-06 16:24 | 38.09609 | 15.63699 | 1869 ft | 199 kts | 336° |
| 2026-05-06 16:24 | 38.11006 | 15.62991 | 2574 ft | 239 kts | 338° |
| 2026-05-06 16:24 | 38.12641 | 15.62167 | 3413 ft | 264 kts | 337° |
| 2026-05-06 16:24 | 38.14381 | 15.61278 | 4319 ft | 273 kts | 337° |
| 2026-05-06 16:25 | 38.16137 | 15.60381 | 5129 ft | 278 kts | 337° |
| 2026-05-06 16:25 | 38.17916 | 15.59466 | 5949 ft | 279 kts | 337° |
| 2026-05-06 16:25 | 38.19724 | 15.58535 | 6786 ft | 282 kts | 337° |
| 2026-05-06 16:25 | 38.21539 | 15.57600 | 7617 ft | 285 kts | 336° |
| 2026-05-06 16:26 | 38.23384 | 15.56650 | 8455 ft | 289 kts | 336° |
| 2026-05-06 16:26 | 38.25258 | 15.55684 | 9330 ft | 292 kts | 336° |
| 2026-05-06 16:26 | 38.27141 | 15.54713 | 10140 ft | 297 kts | 336° |
| 2026-05-06 16:26 | 38.29111 | 15.53761 | 10890 ft | 315 kts | 343° |
| 2026-05-06 16:27 | 38.31365 | 15.53668 | 11663 ft | 340 kts | 10° |
| 2026-05-06 16:27 | 38.33647 | 15.54650 | 12396 ft | 354 kts | 19° |
| 2026-05-06 16:27 | 38.35929 | 15.55808 | 13128 ft | 356 kts | 19° |
| 2026-05-06 16:27 | 38.38293 | 15.56689 | 13879 ft | 352 kts | 1° |
| 2026-05-06 16:28 | 38.40722 | 15.56419 | 14645 ft | 352 kts | 345° |
| 2026-05-06 16:28 | 38.43121 | 15.55808 | 15389 ft | 356 kts | 345° |
| 2026-05-06 16:28 | 38.45544 | 15.55205 | 16128 ft | 358 kts | 345° |
| 2026-05-06 16:28 | 38.48012 | 15.54591 | 16894 ft | 361 kts | 345° |
| 2026-05-06 16:29 | 38.50481 | 15.53976 | 17642 ft | 366 kts | 345° |
| 2026-05-06 16:29 | 38.52960 | 15.53358 | 18377 ft | 370 kts | 345° |
| 2026-05-06 16:29 | 38.55505 | 15.52724 | 19172 ft | 375 kts | 345° |
| 2026-05-06 16:29 | 38.58081 | 15.52153 | 20042 ft | 381 kts | 350° |
| 2026-05-06 16:30 | 38.60747 | 15.51919 | 20862 ft | 387 kts | 353° |
| 2026-05-06 16:30 | 38.62553 | 15.51794 | 21400 ft | 390 kts | 353° |
| 2026-05-06 16:30 | 38.66151 | 15.51537 | 22421 ft | 396 kts | 353° |
| 2026-05-06 16:30 | 38.68938 | 15.51336 | 23173 ft | 401 kts | 353° |
| 2026-05-06 16:31 | 38.71722 | 15.51135 | 23937 ft | 404 kts | 353° |
| 2026-05-06 16:31 | 38.74547 | 15.50929 | 24700 ft | 408 kts | 353° |
| 2026-05-06 16:31 | 38.77349 | 15.50725 | 25394 ft | 411 kts | 353° |
| 2026-05-06 16:31 | 38.80233 | 15.50514 | 26089 ft | 415 kts | 353° |
| 2026-05-06 16:32 | 38.83118 | 15.50303 | 26734 ft | 418 kts | 353° |
| 2026-05-06 16:32 | 38.86020 | 15.50089 | 27359 ft | 421 kts | 353° |
| 2026-05-06 16:32 | 38.88955 | 15.49873 | 27938 ft | 425 kts | 353° |
| 2026-05-06 16:32 | 38.91898 | 15.49655 | 28494 ft | 428 kts | 353° |
| 2026-05-06 16:33 | 38.94887 | 15.49434 | 29038 ft | 431 kts | 353° |
| 2026-05-06 16:33 | 38.97855 | 15.49170 | 29562 ft | 431 kts | 349° |
| 2026-05-06 16:33 | 39.00724 | 15.48187 | 30031 ft | 426 kts | 334° |
| 2026-05-06 16:34 | 39.06178 | 15.45137 | 30927 ft | 432 kts | 333° |
| 2026-05-06 16:34 | 39.08965 | 15.43576 | 31401 ft | 433 kts | 333° |
| 2026-05-06 16:34 | 39.11719 | 15.42033 | 31831 ft | 436 kts | 333° |
| 2026-05-06 16:34 | 39.14501 | 15.40472 | 32275 ft | 437 kts | 333° |
| 2026-05-06 16:35 | 39.17294 | 15.38903 | 32635 ft | 439 kts | 333° |
| 2026-05-06 16:35 | 39.20102 | 15.37326 | 33079 ft | 438 kts | 333° |
| 2026-05-06 16:35 | 39.22858 | 15.35776 | 33590 ft | 436 kts | 333° |
| 2026-05-06 16:35 | 39.25646 | 15.34209 | 34115 ft | 433 kts | 332° |
| 2026-05-06 16:36 | 39.28370 | 15.32675 | 34607 ft | 431 kts | 332° |
| 2026-05-06 16:36 | 39.31136 | 15.31116 | 35044 ft | 429 kts | 332° |
| 2026-05-06 16:36 | 39.33830 | 15.29596 | 35443 ft | 427 kts | 332° |
| 2026-05-06 16:36 | 39.36403 | 15.28143 | 35783 ft | 427 kts | 332° |
| 2026-05-06 16:37 | 39.39115 | 15.26609 | 36121 ft | 427 kts | 332° |
| 2026-05-06 16:37 | 39.41834 | 15.25071 | 36463 ft | 426 kts | 332° |
| 2026-05-06 16:37 | 39.44532 | 15.23544 | 36805 ft | 426 kts | 332° |
| 2026-05-06 16:37 | 39.47237 | 15.22010 | 37188 ft | 425 kts | 332° |
| 2026-05-06 16:38 | 39.49965 | 15.20463 | 37639 ft | 424 kts | 332° |
| 2026-05-06 16:38 | 39.52623 | 15.18955 | 38038 ft | 422 kts | 332° |
| 2026-05-06 16:38 | 39.55340 | 15.17411 | 38383 ft | 422 kts | 332° |
| 2026-05-06 16:38 | 39.58011 | 15.15891 | 38664 ft | 422 kts | 332° |
| 2026-05-06 16:39 | 39.60683 | 15.14370 | 38952 ft | 422 kts | 332° |
| 2026-05-06 16:39 | 39.63387 | 15.12830 | 39230 ft | 422 kts | 332° |
| 2026-05-06 16:39 | 39.66043 | 15.11316 | 39549 ft | 420 kts | 331° |
| 2026-05-06 16:39 | 39.68735 | 15.09779 | 39791 ft | 420 kts | 332° |
| 2026-05-06 16:40 | 39.71379 | 15.08269 | 40017 ft | 420 kts | 332° |
| 2026-05-06 16:40 | 39.76782 | 15.05177 | 40010 ft | 427 kts | 331° |
| 2026-05-06 16:41 | 39.82249 | 15.02044 | 40005 ft | 431 kts | 331° |
| 2026-05-06 16:41 | 39.87736 | 14.98896 | 40001 ft | 433 kts | 331° |
| 2026-05-06 16:42 | 39.93210 | 14.95750 | 40003 ft | 432 kts | 331° |
| 2026-05-06 16:42 | 39.98717 | 14.92579 | 40005 ft | 431 kts | 331° |
| 2026-05-06 16:43 | 40.04198 | 14.89418 | 40007 ft | 432 kts | 331° |
| 2026-05-06 16:43 | 40.09680 | 14.86249 | 40002 ft | 432 kts | 331° |
| 2026-05-06 16:44 | 40.15143 | 14.83030 | 39996 ft | 432 kts | 328° |
| 2026-05-06 16:44 | 40.20387 | 14.79197 | 39998 ft | 432 kts | 325° |
| 2026-05-06 16:45 | 40.25600 | 14.75341 | 39991 ft | 433 kts | 326° |
| 2026-05-06 16:45 | 40.30861 | 14.71447 | 39988 ft | 434 kts | 325° |
| 2026-05-06 16:46 | 40.36119 | 14.67549 | 39990 ft | 435 kts | 326° |
| 2026-05-06 16:46 | 40.41376 | 14.63647 | 39984 ft | 436 kts | 325° |
| 2026-05-06 16:47 | 40.46625 | 14.59745 | 39983 ft | 436 kts | 325° |
| 2026-05-06 16:47 | 40.51928 | 14.55796 | 39989 ft | 438 kts | 325° |
| 2026-05-06 16:48 | 40.57206 | 14.51861 | 39984 ft | 439 kts | 325° |
| 2026-05-06 16:48 | 40.62508 | 14.47900 | 39979 ft | 440 kts | 325° |
| 2026-05-06 16:49 | 40.67833 | 14.43915 | 39986 ft | 441 kts | 325° |
| 2026-05-06 16:49 | 40.73160 | 14.39921 | 39979 ft | 442 kts | 325° |
| 2026-05-06 16:50 | 40.78519 | 14.35898 | 39994 ft | 443 kts | 324° |
| 2026-05-06 16:50 | 40.83890 | 14.31856 | 39989 ft | 444 kts | 324° |
| 2026-05-06 16:51 | 40.89245 | 14.27820 | 39992 ft | 444 kts | 324° |
| 2026-05-06 16:51 | 40.94585 | 14.23788 | 39992 ft | 444 kts | 324° |
| 2026-05-06 16:52 | 40.99945 | 14.19731 | 39991 ft | 445 kts | 324° |
| 2026-05-06 16:52 | 41.05333 | 14.15648 | 39998 ft | 446 kts | 324° |
| 2026-05-06 16:53 | 41.10696 | 14.11574 | 40011 ft | 445 kts | 324° |
| 2026-05-06 16:53 | 41.16064 | 14.07490 | 39990 ft | 445 kts | 324° |
| 2026-05-06 16:54 | 41.21402 | 14.03420 | 39998 ft | 445 kts | 324° |
| 2026-05-06 16:54 | 41.26779 | 13.99313 | 39996 ft | 445 kts | 324° |
| 2026-05-06 16:55 | 41.32412 | 13.95807 | 40002 ft | 454 kts | 335° |
| 2026-05-06 16:55 | 41.38361 | 13.93112 | 39988 ft | 455 kts | 335° |
| 2026-05-06 16:56 | 41.44356 | 13.90382 | 39991 ft | 454 kts | 335° |
| 2026-05-06 16:56 | 41.50322 | 13.87658 | 39993 ft | 454 kts | 335° |
| 2026-05-06 16:57 | 41.56276 | 13.84932 | 40007 ft | 454 kts | 335° |
| 2026-05-06 16:57 | 41.62246 | 13.82192 | 40018 ft | 453 kts | 335° |
| 2026-05-06 16:58 | 41.68218 | 13.79445 | 40028 ft | 454 kts | 335° |
| 2026-05-06 16:58 | 41.74175 | 13.76699 | 40046 ft | 455 kts | 335° |
| 2026-05-06 16:59 | 41.80174 | 13.73927 | 40042 ft | 455 kts | 335° |
| 2026-05-06 16:59 | 41.86122 | 13.71174 | 40031 ft | 455 kts | 335° |
| 2026-05-06 17:00 | 41.92088 | 13.68407 | 40030 ft | 455 kts | 335° |
| 2026-05-06 17:00 | 41.98072 | 13.65624 | 40021 ft | 455 kts | 335° |
| 2026-05-06 17:01 | 42.04047 | 13.62842 | 40025 ft | 455 kts | 335° |
| 2026-05-06 17:01 | 42.10012 | 13.60057 | 40020 ft | 455 kts | 335° |
| 2026-05-06 17:02 | 42.16013 | 13.57250 | 40017 ft | 456 kts | 335° |
| 2026-05-06 17:02 | 42.21971 | 13.54457 | 40018 ft | 457 kts | 335° |
| 2026-05-06 17:03 | 42.27989 | 13.51630 | 40024 ft | 457 kts | 335° |
| 2026-05-06 17:03 | 42.34002 | 13.48800 | 40014 ft | 458 kts | 335° |
| 2026-05-06 17:04 | 42.39987 | 13.45977 | 40020 ft | 459 kts | 335° |
| 2026-05-06 17:04 | 42.46037 | 13.43118 | 40019 ft | 460 kts | 335° |
| 2026-05-06 17:05 | 42.52084 | 13.40255 | 40012 ft | 460 kts | 334° |
| 2026-05-06 17:05 | 42.58103 | 13.37398 | 39999 ft | 460 kts | 335° |
| 2026-05-06 17:06 | 42.64153 | 13.34522 | 40004 ft | 461 kts | 334° |
| 2026-05-06 17:06 | 42.70190 | 13.31645 | 39996 ft | 462 kts | 334° |
| 2026-05-06 17:07 | 42.76277 | 13.28739 | 40000 ft | 462 kts | 334° |
| 2026-05-06 17:07 | 42.82321 | 13.25847 | 39995 ft | 462 kts | 334° |
| 2026-05-06 17:08 | 42.88408 | 13.22929 | 40002 ft | 463 kts | 334° |
| 2026-05-06 17:08 | 42.94479 | 13.20012 | 39996 ft | 464 kts | 334° |
| 2026-05-06 17:09 | 43.00544 | 13.17092 | 39995 ft | 464 kts | 334° |
| 2026-05-06 17:09 | 43.06644 | 13.14148 | 39989 ft | 464 kts | 334° |
| 2026-05-06 17:10 | 43.12716 | 13.11210 | 40000 ft | 464 kts | 334° |
| 2026-05-06 17:10 | 43.18800 | 13.08261 | 39969 ft | 465 kts | 334° |
| 2026-05-06 17:11 | 43.24905 | 13.05297 | 39942 ft | 466 kts | 334° |
| 2026-05-06 17:11 | 43.31002 | 13.02330 | 39952 ft | 467 kts | 334° |
| 2026-05-06 17:12 | 43.37123 | 12.99346 | 39962 ft | 466 kts | 334° |
| 2026-05-06 17:12 | 43.43198 | 12.96378 | 39953 ft | 466 kts | 334° |
| 2026-05-06 17:13 | 43.49319 | 12.93380 | 39953 ft | 466 kts | 334° |
| 2026-05-06 17:13 | 43.55430 | 12.90381 | 39955 ft | 466 kts | 334° |
| 2026-05-06 17:14 | 43.61494 | 12.87398 | 39930 ft | 466 kts | 335° |
| 2026-05-06 17:14 | 43.67642 | 12.84367 | 39931 ft | 467 kts | 334° |
| 2026-05-06 17:15 | 43.73729 | 12.81360 | 39926 ft | 468 kts | 335° |
| 2026-05-06 17:15 | 43.79866 | 12.78322 | 39928 ft | 468 kts | 335° |
| 2026-05-06 17:16 | 43.86013 | 12.75272 | 39925 ft | 468 kts | 335° |
| 2026-05-06 17:16 | 43.92110 | 12.72241 | 39917 ft | 469 kts | 335° |
| 2026-05-06 17:17 | 43.98270 | 12.69171 | 39911 ft | 468 kts | 335° |
| 2026-05-06 17:17 | 44.04393 | 12.66113 | 39893 ft | 469 kts | 334° |
| 2026-05-06 17:18 | 44.10508 | 12.63053 | 39896 ft | 469 kts | 334° |
| 2026-05-06 17:18 | 44.16675 | 12.59959 | 39887 ft | 468 kts | 335° |
| 2026-05-06 17:19 | 44.22662 | 12.56630 | 39894 ft | 466 kts | 332° |
| 2026-05-06 17:19 | 44.28640 | 12.53204 | 39893 ft | 466 kts | 332° |
| 2026-05-06 17:20 | 44.34629 | 12.49767 | 39889 ft | 465 kts | 332° |
| 2026-05-06 17:20 | 44.40616 | 12.46324 | 39892 ft | 466 kts | 332° |
| 2026-05-06 17:21 | 44.46614 | 12.42868 | 39875 ft | 466 kts | 332° |
| 2026-05-06 17:21 | 44.52594 | 12.39416 | 39870 ft | 466 kts | 332° |
| 2026-05-06 17:22 | 44.58585 | 12.35949 | 39878 ft | 466 kts | 332° |
| 2026-05-06 17:22 | 44.64582 | 12.32471 | 39867 ft | 467 kts | 332° |
| 2026-05-06 17:23 | 44.70584 | 12.28984 | 39866 ft | 466 kts | 331° |
| 2026-05-06 17:23 | 44.76548 | 12.25510 | 39872 ft | 466 kts | 331° |
| 2026-05-06 17:24 | 44.82546 | 12.22010 | 39879 ft | 465 kts | 331° |
| 2026-05-06 17:24 | 44.88520 | 12.18515 | 39859 ft | 465 kts | 331° |
| 2026-05-06 17:25 | 44.94474 | 12.15024 | 39863 ft | 466 kts | 331° |
| 2026-05-06 17:25 | 45.00435 | 12.11521 | 39860 ft | 466 kts | 331° |
| 2026-05-06 17:26 | 45.06444 | 12.07981 | 39859 ft | 467 kts | 331° |
| 2026-05-06 17:26 | 45.12437 | 12.04445 | 39884 ft | 465 kts | 331° |
| 2026-05-06 17:27 | 45.18435 | 12.00896 | 39870 ft | 467 kts | 332° |
| 2026-05-06 17:27 | 45.24380 | 11.97372 | 39891 ft | 467 kts | 331° |
| 2026-05-06 17:28 | 45.30364 | 11.93816 | 39891 ft | 467 kts | 331° |
| 2026-05-06 17:28 | 45.36362 | 11.90243 | 39869 ft | 467 kts | 331° |
| 2026-05-06 17:29 | 45.42335 | 11.86678 | 39883 ft | 467 kts | 331° |
| 2026-05-06 17:29 | 45.48315 | 11.83100 | 39879 ft | 467 kts | 332° |
| 2026-05-06 17:30 | 45.54312 | 11.79504 | 39870 ft | 467 kts | 332° |
| 2026-05-06 17:30 | 45.60286 | 11.75913 | 39862 ft | 469 kts | 332° |
| 2026-05-06 17:30 | 45.63331 | 11.74076 | 39418 ft | 478 kts | 332° |
| 2026-05-06 17:31 | 45.66342 | 11.72261 | 38883 ft | 475 kts | 331° |
| 2026-05-06 17:31 | 45.69392 | 11.70424 | 38337 ft | 472 kts | 331° |
| 2026-05-06 17:31 | 45.72413 | 11.68600 | 37800 ft | 470 kts | 331° |
| 2026-05-06 17:31 | 45.75391 | 11.66798 | 37230 ft | 471 kts | 330° |
| 2026-05-06 17:32 | 45.78404 | 11.64973 | 36708 ft | 472 kts | 330° |
| 2026-05-06 17:32 | 45.81433 | 11.63135 | 36167 ft | 473 kts | 330° |
| 2026-05-06 17:32 | 45.84463 | 11.61295 | 35572 ft | 476 kts | 329° |
| 2026-05-06 17:32 | 45.87536 | 11.59428 | 34992 ft | 476 kts | 329° |
| 2026-05-06 17:33 | 45.90590 | 11.57569 | 34368 ft | 478 kts | 329° |
| 2026-05-06 17:33 | 45.93619 | 11.55724 | 33858 ft | 478 kts | 329° |
| 2026-05-06 17:33 | 45.96714 | 11.53834 | 33253 ft | 482 kts | 329° |
| 2026-05-06 17:33 | 45.99788 | 11.51958 | 32720 ft | 483 kts | 329° |
| 2026-05-06 17:34 | 46.02878 | 11.50068 | 32119 ft | 485 kts | 329° |
| 2026-05-06 17:34 | 46.05990 | 11.48164 | 31558 ft | 486 kts | 329° |
| 2026-05-06 17:34 | 46.09089 | 11.46265 | 30973 ft | 486 kts | 329° |
| 2026-05-06 17:34 | 46.12241 | 11.44333 | 30382 ft | 487 kts | 329° |
| 2026-05-06 17:35 | 46.15350 | 11.42426 | 29804 ft | 483 kts | 329° |
| 2026-05-06 17:35 | 46.18430 | 11.40533 | 29235 ft | 480 kts | 329° |
| 2026-05-06 17:35 | 46.21483 | 11.38655 | 28661 ft | 477 kts | 329° |
| 2026-05-06 17:36 | 46.27782 | 11.35532 | 27521 ft | 481 kts | 345° |
| 2026-05-06 17:36 | 46.31080 | 11.34820 | 26936 ft | 479 kts | 345° |
| 2026-05-06 17:36 | 46.34382 | 11.34114 | 26344 ft | 476 kts | 345° |
| 2026-05-06 17:36 | 46.37670 | 11.33407 | 25776 ft | 470 kts | 345° |
| 2026-05-06 17:37 | 46.40912 | 11.32710 | 25195 ft | 465 kts | 345° |
| 2026-05-06 17:37 | 46.44080 | 11.32027 | 24654 ft | 460 kts | 346° |
| 2026-05-06 17:37 | 46.47242 | 11.31342 | 24104 ft | 457 kts | 346° |
| 2026-05-06 17:37 | 46.50367 | 11.30665 | 23549 ft | 454 kts | 346° |
| 2026-05-06 17:38 | 46.53478 | 11.29991 | 23007 ft | 449 kts | 346° |
| 2026-05-06 17:38 | 46.56553 | 11.29323 | 22469 ft | 445 kts | 346° |
| 2026-05-06 17:38 | 46.59615 | 11.28658 | 21983 ft | 442 kts | 346° |
| 2026-05-06 17:38 | 46.62613 | 11.28005 | 21462 ft | 440 kts | 346° |
| 2026-05-06 17:39 | 46.65633 | 11.27346 | 20954 ft | 437 kts | 347° |
| 2026-05-06 17:39 | 46.68664 | 11.26685 | 20425 ft | 434 kts | 347° |
| 2026-05-06 17:39 | 46.71603 | 11.26042 | 19909 ft | 432 kts | 347° |
| 2026-05-06 17:39 | 46.74585 | 11.25390 | 19403 ft | 430 kts | 347° |
| 2026-05-06 17:40 | 46.77515 | 11.24748 | 18871 ft | 428 kts | 348° |
| 2026-05-06 17:40 | 46.80452 | 11.24104 | 18353 ft | 425 kts | 348° |
| 2026-05-06 17:40 | 46.83364 | 11.23465 | 17863 ft | 423 kts | 348° |
| 2026-05-06 17:40 | 46.86293 | 11.23086 | 17302 ft | 423 kts | 359° |
| 2026-05-06 17:41 | 46.89166 | 11.23657 | 16691 ft | 420 kts | 14° |
| 2026-05-06 17:41 | 46.91856 | 11.25232 | 16110 ft | 412 kts | 30° |
| 2026-05-06 17:41 | 46.94161 | 11.27649 | 15470 ft | 405 kts | 43° |
| 2026-05-06 17:41 | 46.95990 | 11.30732 | 14665 ft | 399 kts | 58° |
| 2026-05-06 17:42 | 46.97215 | 11.34249 | 14291 ft | 381 kts | 71° |
| 2026-05-06 17:42 | 46.98090 | 11.37885 | 13942 ft | 378 kts | 70° |